Weather observations for the past three days for
Charleston, Charleston Air Force Base
Imperial (Metric)
Date Time (edt) Wind (mph) Vis. (mi.) Weather Sky Cond. Temperature (ºF) Relative Humidity Wind Chill (°F) Heat Index (°F) Pressure Precipitation (in)
Air Dwpt 6 hour altimeter (in) sea level (mb) 1 hr 3 hr 6 hr
Max. Min.
31 20:56 SE 6 10.00 A Few Clouds FEW150 81 73.9 79% 86 30.07 1018.2
31 18:56 SE 9 10.00 Partly Cloudy FEW030 SCT150 SCT250 84.9 75.9 75% 94 30.06 1017.8
31 17:56 E 9 10.00 Mostly Cloudy SCT030 SCT150 BKN200 87.1 75.9 70% 98 30.06 1017.7
31 16:56 SE 6 10.00 Mostly Cloudy SCT030 SCT150 BKN200 88 75 66% 98 30.05 1017.5
31 15:56 Vrbl 5 10.00 Mostly Cloudy SCT025 BKN150 BKN200 86 73.9 67% 94 30.06 1017.7
31 14:56 SE 7 10.00 Mostly Cloudy SCT025 BKN040 BKN150 86 73.9 67% 94 30.08 1018.6
31 13:56 E 6 10.00 Mostly Cloudy SCT025 BKN035 BKN150 BKN250 86 73.9 87.1 77 67% 94 30.11 1019.4
31 12:56 NE 5 10.00 Mostly Cloudy SCT025 BKN035 BKN250 84.9 75 72% 93 30.13 1020.3
31 11:56 NE 6 10.00 Mostly Cloudy SCT030 BKN150 BKN250 84 73.9 72% 91 30.13 1020.3
31 10:56 N 7 10.00 Partly Cloudy FEW020 SCT250 84.9 73 68% 92 30.12 1019.8
31 09:56 N 6 10.00 Partly Cloudy FEW015 SCT150 SCT250 82.9 75 77% 90 30.12 1019.7
31 08:56 N 7 10.00 A Few Clouds FEW010 FEW200 80.1 75.9 87% 85 30.11 1019.4
31 07:56 NE 5 10.00 A Few Clouds FEW150 FEW250 77 75 77 73.9 94% 78 30.09 1019.0
31 06:56 N 5 10.00 Partly Cloudy SCT150 75 73.9 96% 73 30.08 1018.7
31 05:56 N 6 10.00 Partly Cloudy FEW015 SCT150 75 73.9 96% 73 30.08 1018.5
31 04:56 N 5 10.00 Partly Cloudy SCT020 SCT150 75 73.9 96% 73 30.07 1018.2
31 03:56 N 6 10.00 Partly Cloudy FEW015 SCT200 75 73.9 96% 73 30.07 1018.3
31 02:56 NE 5 10.00 A Few Clouds FEW020 FEW150 75 75 100% 72 30.08 1018.4
31 01:56 NE 5 10.00 Partly Cloudy FEW015 SCT150 75.9 75 79 75 97% 75 30.09 1018.7
31 00:56 N 3 10.00 Partly Cloudy SCT150 SCT200 75 73.9 96% 73 30.1 1019.1
30 23:56 Calm 10.00 Partly Cloudy FEW150 SCT200 75.9 75 97% 75 30.1 1019.2
30 22:56 E 3 10.00 Mostly Cloudy FEW015 SCT150 BKN200 78.1 75.9 93% 81 30.11 1019.6
30 21:56 Calm 10.00 Mostly Cloudy BKN200 79 75 88% 83 30.11 1019.7
30 20:56 E 5 10.00 Mostly Cloudy BKN150 BKN250 79 77 94% 83 30.1 1019.2
30 19:56 NE 3 10.00 Mostly Cloudy FEW024 BKN150 BKN250 79 77 84 79 94% 83 30.09 1018.8 0.01
30 18:56 N 5 10.00 Mostly Cloudy FEW024 BKN150 BKN250 80.1 77 90% 86 30.08 1018.6
30 16:56 N 6 10.00 Light Rain SCT024 BKN060 BKN200 80.1 75.9 87% 85 30.1 1019.2 0.01
30 15:56 E 5 10.00 Mostly Cloudy FEW020 SCT038 BKN070 84 75.9 77% 93 30.11 1019.5
30 14:56 N 3 10.00 Mostly Cloudy SCT020 BKN150 82 77 85% 90 30.11 1019.6 0.01
30 13:56 NE 5 10.00 Mostly Cloudy BKN030 BKN044 BKN055 80.1 77 84.9 75 90% 86 30.14 1020.6 0.15 0.15
30 12:56 NE 14 G 18 10.00 Mostly Cloudy FEW018 SCT030 BKN045 81 75 82% 87 30.15 1020.8
30 11:56 Vrbl 5 10.00 Partly Cloudy SCT020 SCT050 SCT060 82.9 75.9 79% 91 30.16 1021.4
30 10:56 N 6 10.00 Mostly Cloudy SCT014 SCT075 BKN200 82.9 75.9 79% 91 30.17 1021.6
30 09:56 N 5 10.00 Mostly Cloudy SCT006 BKN100 BKN200 79 75.9 90% 83 30.16 1021.4
30 08:56 NE 5 9.00 Mostly Cloudy BKN004 BKN200 77 75.9 96% 78 30.15 1020.9
30 07:56 N 6 7.00 Overcast OVC004 75 75 75.9 73.9 100% 72 30.14 1020.5
30 06:56 N 6 10.00 Mostly Cloudy BKN200 73.9 73 97% 30.12 1020.0
30 05:56 NE 8 10.00 Mostly Cloudy BKN003 BKN200 75 73.9 96% 73 30.12 1019.7
30 04:56 N 5 10.00 Mostly Cloudy SCT150 BKN200 75 75 100% 72 30.11 1019.4
30 03:56 Calm 10.00 Partly Cloudy FEW031 SCT190 75 75 100% 72 30.11 1019.4
30 02:56 NE 7 10.00 Overcast SCT031 OVC150 75.9 75 97% 75 30.12 1019.9
30 01:56 N 8 9.00 Overcast BKN015 OVC150 75.9 75 78.1 75 97% 75 30.14 1020.5 0.01
30 00:56 N 3 9.00 Mostly Cloudy FEW045 BKN150 BKN200 75.9 75 97% 75 30.14 1020.5
29 23:56 Calm 10.00 Mostly Cloudy FEW020 FEW045 BKN130 BKN200 75.9 75.9 100% 75 30.14 1020.5
29 22:56 Calm 10.00 Mostly Cloudy FEW020 FEW049 BKN180 75.9 75.9 100% 75 30.16 1021.1 0.01
29 21:56 NE 5 10.00 Mostly Cloudy FEW020 FEW050 BKN180 77 75.9 96% 78 30.17 1021.5
29 20:56 E 3 10.00 Light Rain FEW018 SCT050 BKN150 78.1 75.9 93% 81 30.13 1020.2 0.01
29 19:56 SE 6 10.00 Light Rain BKN070 BKN085 78.1 75.9 84 78.1 93% 81 30.1 1019.2 0.01 0.03
29 18:56 E 5 10.00 Mostly Cloudy SCT017 BKN050 BKN200 80.1 75 85% 85 30.11 1019.7
29 17:56 E 10 10.00 Mostly Cloudy BKN017 BKN050 BKN200 81 75.9 85% 87 30.11 1019.4
29 16:56 S 8 10.00 Mostly Cloudy BKN017 BKN029 BKN150 82 75.9 82% 89 30.11 1019.6 0.02
29 15:56 SE 6 9.00 Light Rain FEW025 BKN044 OVC075 80.1 75.9 87% 85 30.12 1019.8 0.02
29 14:56 SE 3 10.00 Overcast FEW021 BKN150 OVC200 82 73 74% 87 30.12 1019.9
29 13:56 Vrbl 3 10.00 Mostly Cloudy BKN018 BKN030 BKN045 82.9 73.9 82.9 75 74% 89 30.13 1020.3 0.01
29 12:56 SE 6 10.00 Overcast FEW014 BKN030 OVC100 81 75 82% 87 30.15 1021.0
29 11:56 SE 7 10.00 Mostly Cloudy SCT020 BKN030 BKN050 79 73.9 85% 83 30.16 1021.3
29 10:56 Calm 10.00 Mostly Cloudy SCT010 SCT030 BKN060 78.1 75 90% 81 30.16 1021.3 0.01
29 09:56 Calm 10.00 Overcast FEW015 SCT120 OVC200 77 75 94% 78 30.15 1020.8
29 08:56 E 3 10.00 Mostly Cloudy FEW065 SCT120 BKN200 75.9 75 97% 75 30.13 1020.3 0.01
29 07:56 E 3 10.00 Overcast SCT007 SCT045 OVC060 75 73.9 75 73.9 96% 73 30.13 1020.1 0.1 0.28
29 06:56 E 6 5.00 Rain Fog/Mist OVC015 73.9 73.9 100% 30.12 1019.8 0.11
29 05:56 N 5 10.00 Overcast FEW017 SCT021 BKN110 OVC150 73.9 73 97% 30.11 1019.4 0.01
29 04:56 SE 6 9.00 Light Rain FEW030 BKN070 OVC090 75 75 100% 72 30.1 1019.1 0.05 0.06
29 03:56 Calm 10.00 Light Rain BKN110 OVC150 75 73.9 96% 73 30.07 1018.2 0.01
29 02:56 SE 3 10.00 Light Rain FEW070 SCT110 OVC150 75 73.9 96% 73 30.06 1017.7
29 01:56 Calm 10.00 Overcast FEW110 OVC150 75 73.9 75.9 73.9 96% 73 30.07 1018.3
29 00:56 Calm 10.00 Overcast FEW120 OVC150 75 73.9 96% 73 30.08 1018.4
28 23:56 Calm 10.00 Overcast OVC150 75 73.9 96% 73 30.07 1018.2
28 22:56 Calm 10.00 Overcast FEW110 OVC150 75.9 75 97% 75 30.07 1018.3
28 21:56 Calm 10.00 Light Rain BKN110 OVC150 75.9 73.9 94% 75 30.07 1018.0
Date Time (edt) Wind (mph) Vis. (mi.) Weather Sky Cond. Air Dwpt Max. Min. Relative Humidity Wind Chill (°F) Heat Index (°F) altimeter (in) sea level (mb) 1 hr 3 hr 6 hr
6 hour
Temperature (ºF) Pressure Precipitation (in)